sensor_id;sensor_type;location;lat;lon;timestamp;P1;durP1;ratioP1;P2;durP2;ratioP2
33266;SDS011;19638;49.080;11.896;2023-05-17T00:02:21;6.70;;;2.90;;
33266;SDS011;19638;49.080;11.896;2023-05-17T00:06:28;7.38;;;2.75;;
33266;SDS011;19638;49.080;11.896;2023-05-17T00:10:32;3.75;;;2.45;;
33266;SDS011;19638;49.080;11.896;2023-05-17T00:14:39;8.10;;;2.80;;
33266;SDS011;19638;49.080;11.896;2023-05-17T00:18:42;6.43;;;2.30;;
33266;SDS011;19638;49.080;11.896;2023-05-17T00:22:47;6.45;;;2.72;;
33266;SDS011;19638;49.080;11.896;2023-05-17T00:26:50;8.40;;;3.15;;
33266;SDS011;19638;49.080;11.896;2023-05-17T00:30:53;7.65;;;2.95;;
33266;SDS011;19638;49.080;11.896;2023-05-17T00:35:00;9.67;;;3.10;;
33266;SDS011;19638;49.080;11.896;2023-05-17T00:39:05;10.77;;;2.95;;
33266;SDS011;19638;49.080;11.896;2023-05-17T00:43:08;7.40;;;2.38;;
33266;SDS011;19638;49.080;11.896;2023-05-17T00:47:11;8.07;;;2.70;;
33266;SDS011;19638;49.080;11.896;2023-05-17T00:51:15;5.23;;;2.37;;
33266;SDS011;19638;49.080;11.896;2023-05-17T00:55:22;6.97;;;2.47;;
33266;SDS011;19638;49.080;11.896;2023-05-17T00:59:28;10.18;;;2.85;;
33266;SDS011;19638;49.080;11.896;2023-05-17T01:03:36;6.03;;;2.60;;
33266;SDS011;19638;49.080;11.896;2023-05-17T01:07:39;4.30;;;2.30;;
33266;SDS011;19638;49.080;11.896;2023-05-17T01:11:46;6.37;;;2.10;;
33266;SDS011;19638;49.080;11.896;2023-05-17T01:16:01;4.28;;;2.22;;
33266;SDS011;19638;49.080;11.896;2023-05-17T01:20:13;8.48;;;2.15;;
33266;SDS011;19638;49.080;11.896;2023-05-17T01:24:24;10.02;;;2.10;;
33266;SDS011;19638;49.080;11.896;2023-05-17T01:28:33;7.57;;;2.23;;
33266;SDS011;19638;49.080;11.896;2023-05-17T01:32:39;4.55;;;2.00;;
33266;SDS011;19638;49.080;11.896;2023-05-17T01:36:44;6.47;;;2.05;;
33266;SDS011;19638;49.080;11.896;2023-05-17T01:40:57;8.70;;;2.20;;
33266;SDS011;19638;49.080;11.896;2023-05-17T01:45:05;2.80;;;1.95;;
33266;SDS011;19638;49.080;11.896;2023-05-17T01:49:15;3.07;;;2.03;;
33266;SDS011;19638;49.080;11.896;2023-05-17T01:53:24;7.90;;;2.50;;
33266;SDS011;19638;49.080;11.896;2023-05-17T01:57:35;4.13;;;2.10;;
33266;SDS011;19638;49.080;11.896;2023-05-17T02:01:47;4.80;;;2.03;;
33266;SDS011;19638;49.080;11.896;2023-05-17T02:05:54;6.07;;;2.03;;
33266;SDS011;19638;49.080;11.896;2023-05-17T02:09:58;4.68;;;1.73;;
33266;SDS011;19638;49.080;11.896;2023-05-17T02:14:04;5.90;;;2.30;;
33266;SDS011;19638;49.080;11.896;2023-05-17T02:18:10;2.70;;;1.98;;
33266;SDS011;19638;49.080;11.896;2023-05-17T02:22:13;3.97;;;2.13;;
33266;SDS011;19638;49.080;11.896;2023-05-17T02:26:21;4.83;;;2.00;;
33266;SDS011;19638;49.080;11.896;2023-05-17T02:30:26;3.07;;;2.00;;
33266;SDS011;19638;49.080;11.896;2023-05-17T02:34:42;2.50;;;2.27;;
33266;SDS011;19638;49.080;11.896;2023-05-17T02:38:45;8.18;;;2.13;;
33266;SDS011;19638;49.080;11.896;2023-05-17T02:42:50;4.20;;;1.87;;
33266;SDS011;19638;49.080;11.896;2023-05-17T02:46:54;6.43;;;2.53;;
33266;SDS011;19638;49.080;11.896;2023-05-17T02:50:59;5.47;;;2.10;;
33266;SDS011;19638;49.080;11.896;2023-05-17T02:55:02;5.00;;;2.00;;
33266;SDS011;19638;49.080;11.896;2023-05-17T02:59:09;4.13;;;2.00;;
33266;SDS011;19638;49.080;11.896;2023-05-17T03:03:12;5.77;;;2.20;;
33266;SDS011;19638;49.080;11.896;2023-05-17T03:07:17;5.23;;;2.23;;
33266;SDS011;19638;49.080;11.896;2023-05-17T03:11:20;7.47;;;2.60;;
33266;SDS011;19638;49.080;11.896;2023-05-17T03:15:23;3.60;;;1.73;;
33266;SDS011;19638;49.080;11.896;2023-05-17T03:19:27;3.23;;;1.80;;
33266;SDS011;19638;49.080;11.896;2023-05-17T03:23:32;5.73;;;1.90;;
33266;SDS011;19638;49.080;11.896;2023-05-17T03:27:35;4.67;;;2.33;;
33266;SDS011;19638;49.080;11.896;2023-05-17T03:31:41;6.40;;;1.80;;
33266;SDS011;19638;49.080;11.896;2023-05-17T03:35:47;6.10;;;2.00;;
33266;SDS011;19638;49.080;11.896;2023-05-17T03:39:52;8.73;;;2.10;;
33266;SDS011;19638;49.080;11.896;2023-05-17T03:43:58;11.60;;;2.17;;
33266;SDS011;19638;49.080;11.896;2023-05-17T03:48:03;7.37;;;2.27;;
33266;SDS011;19638;49.080;11.896;2023-05-17T03:52:07;3.73;;;1.97;;
33266;SDS011;19638;49.080;11.896;2023-05-17T03:56:11;7.33;;;2.27;;
33266;SDS011;19638;49.080;11.896;2023-05-17T04:00:18;7.47;;;1.93;;
33266;SDS011;19638;49.080;11.896;2023-05-17T04:04:22;7.50;;;2.87;;
33266;SDS011;19638;49.080;11.896;2023-05-17T04:08:28;8.30;;;2.30;;
33266;SDS011;19638;49.080;11.896;2023-05-17T04:12:32;5.97;;;1.90;;
33266;SDS011;19638;49.080;11.896;2023-05-17T04:16:41;6.63;;;2.10;;
33266;SDS011;19638;49.080;11.896;2023-05-17T04:20:45;6.97;;;2.43;;
33266;SDS011;19638;49.080;11.896;2023-05-17T04:24:54;5.17;;;1.90;;
33266;SDS011;19638;49.080;11.896;2023-05-17T04:28:58;6.23;;;1.80;;
33266;SDS011;19638;49.080;11.896;2023-05-17T04:33:02;7.33;;;2.20;;
33266;SDS011;19638;49.080;11.896;2023-05-17T04:37:07;5.23;;;2.37;;
33266;SDS011;19638;49.080;11.896;2023-05-17T04:41:16;10.10;;;2.30;;
33266;SDS011;19638;49.080;11.896;2023-05-17T04:45:23;6.77;;;2.10;;
33266;SDS011;19638;49.080;11.896;2023-05-17T04:49:26;5.00;;;2.07;;
33266;SDS011;19638;49.080;11.896;2023-05-17T04:53:33;4.57;;;2.20;;
33266;SDS011;19638;49.080;11.896;2023-05-17T04:57:37;3.43;;;1.90;;
33266;SDS011;19638;49.080;11.896;2023-05-17T05:01:43;7.13;;;2.07;;
33266;SDS011;19638;49.080;11.896;2023-05-17T05:05:47;9.30;;;2.20;;
33266;SDS011;19638;49.080;11.896;2023-05-17T05:09:51;5.33;;;2.10;;
33266;SDS011;19638;49.080;11.896;2023-05-17T05:13:54;6.17;;;2.20;;
33266;SDS011;19638;49.080;11.896;2023-05-17T05:17:59;6.47;;;2.10;;
33266;SDS011;19638;49.080;11.896;2023-05-17T05:22:04;5.80;;;2.40;;
33266;SDS011;19638;49.080;11.896;2023-05-17T05:26:11;5.23;;;2.27;;
33266;SDS011;19638;49.080;11.896;2023-05-17T05:30:17;11.20;;;2.27;;
33266;SDS011;19638;49.080;11.896;2023-05-17T05:34:25;6.13;;;2.27;;
33266;SDS011;19638;49.080;11.896;2023-05-17T05:38:28;6.70;;;2.57;;
33266;SDS011;19638;49.080;11.896;2023-05-17T05:42:32;4.57;;;2.27;;
33266;SDS011;19638;49.080;11.896;2023-05-17T05:46:35;15.53;;;2.60;;
33266;SDS011;19638;49.080;11.896;2023-05-17T05:50:40;10.17;;;2.00;;
33266;SDS011;19638;49.080;11.896;2023-05-17T05:54:47;5.07;;;2.13;;
33266;SDS011;19638;49.080;11.896;2023-05-17T05:58:50;8.65;;;2.70;;
33266;SDS011;19638;49.080;11.896;2023-05-17T06:02:54;4.73;;;2.20;;
33266;SDS011;19638;49.080;11.896;2023-05-17T06:07:05;7.30;;;2.77;;
33266;SDS011;19638;49.080;11.896;2023-05-17T06:11:11;6.60;;;2.53;;
33266;SDS011;19638;49.080;11.896;2023-05-17T06:15:15;9.07;;;2.50;;
33266;SDS011;19638;49.080;11.896;2023-05-17T06:19:20;5.27;;;2.40;;
33266;SDS011;19638;49.080;11.896;2023-05-17T06:23:25;8.63;;;2.60;;
33266;SDS011;19638;49.080;11.896;2023-05-17T06:27:29;4.82;;;2.40;;
33266;SDS011;19638;49.080;11.896;2023-05-17T06:31:33;8.43;;;3.30;;
33266;SDS011;19638;49.080;11.896;2023-05-17T06:35:38;8.05;;;2.70;;
33266;SDS011;19638;49.080;11.896;2023-05-17T06:40:02;7.25;;;3.05;;
33266;SDS011;19638;49.080;11.896;2023-05-17T06:44:17;6.95;;;2.70;;
33266;SDS011;19638;49.080;11.896;2023-05-17T06:48:20;10.13;;;2.72;;
33266;SDS011;19638;49.080;11.896;2023-05-17T06:52:23;13.18;;;3.17;;
33266;SDS011;19638;49.080;11.896;2023-05-17T06:56:28;3.58;;;2.60;;
33266;SDS011;19638;49.080;11.896;2023-05-17T07:00:31;9.00;;;3.25;;
33266;SDS011;19638;49.080;11.896;2023-05-17T07:04:35;7.20;;;3.33;;
33266;SDS011;19638;49.080;11.896;2023-05-17T07:08:38;8.55;;;3.50;;
33266;SDS011;19638;49.080;11.896;2023-05-17T07:12:45;9.02;;;3.60;;
33266;SDS011;19638;49.080;11.896;2023-05-17T07:16:48;6.90;;;3.65;;
33266;SDS011;19638;49.080;11.896;2023-05-17T07:20:55;7.78;;;3.08;;
33266;SDS011;19638;49.080;11.896;2023-05-17T07:24:58;8.13;;;2.92;;
33266;SDS011;19638;49.080;11.896;2023-05-17T07:29:02;10.77;;;3.50;;
33266;SDS011;19638;49.080;11.896;2023-05-17T07:33:05;6.72;;;3.25;;
33266;SDS011;19638;49.080;11.896;2023-05-17T07:37:09;6.03;;;3.63;;
33266;SDS011;19638;49.080;11.896;2023-05-17T07:41:16;6.22;;;3.08;;
33266;SDS011;19638;49.080;11.896;2023-05-17T07:45:24;10.18;;;3.53;;
33266;SDS011;19638;49.080;11.896;2023-05-17T07:49:29;6.80;;;3.22;;
33266;SDS011;19638;49.080;11.896;2023-05-17T07:53:35;5.43;;;3.30;;
33266;SDS011;19638;49.080;11.896;2023-05-17T07:57:39;12.25;;;3.38;;
33266;SDS011;19638;49.080;11.896;2023-05-17T08:01:43;8.63;;;3.33;;
33266;SDS011;19638;49.080;11.896;2023-05-17T08:05:46;6.88;;;3.42;;
33266;SDS011;19638;49.080;11.896;2023-05-17T08:09:53;8.57;;;3.38;;
33266;SDS011;19638;49.080;11.896;2023-05-17T08:13:58;7.65;;;3.28;;
33266;SDS011;19638;49.080;11.896;2023-05-17T08:18:03;9.93;;;3.70;;
33266;SDS011;19638;49.080;11.896;2023-05-17T08:22:08;7.68;;;3.00;;
33266;SDS011;19638;49.080;11.896;2023-05-17T08:26:13;7.50;;;3.47;;
33266;SDS011;19638;49.080;11.896;2023-05-17T08:30:17;5.63;;;3.45;;
33266;SDS011;19638;49.080;11.896;2023-05-17T08:34:30;11.20;;;4.28;;
33266;SDS011;19638;49.080;11.896;2023-05-17T08:38:37;7.47;;;3.60;;
33266;SDS011;19638;49.080;11.896;2023-05-17T08:42:40;9.43;;;3.60;;
33266;SDS011;19638;49.080;11.896;2023-05-17T08:46:44;2.70;;;2.50;;
33266;SDS011;19638;49.080;11.896;2023-05-17T08:50:55;7.15;;;3.53;;
33266;SDS011;19638;49.080;11.896;2023-05-17T08:55:00;9.30;;;3.75;;
33266;SDS011;19638;49.080;11.896;2023-05-17T08:59:05;7.30;;;3.20;;
33266;SDS011;19638;49.080;11.896;2023-05-17T09:03:14;5.65;;;3.30;;
33266;SDS011;19638;49.080;11.896;2023-05-17T09:07:28;9.10;;;4.07;;
33266;SDS011;19638;49.080;11.896;2023-05-17T09:11:31;8.57;;;3.72;;
33266;SDS011;19638;49.080;11.896;2023-05-17T09:15:36;10.50;;;4.05;;
33266;SDS011;19638;49.080;11.896;2023-05-17T09:19:41;6.25;;;3.63;;
33266;SDS011;19638;49.080;11.896;2023-05-17T09:23:47;6.93;;;4.05;;
33266;SDS011;19638;49.080;11.896;2023-05-17T09:28:06;8.25;;;3.65;;
33266;SDS011;19638;49.080;11.896;2023-05-17T09:32:12;6.20;;;3.88;;
33266;SDS011;19638;49.080;11.896;2023-05-17T09:36:17;7.15;;;3.50;;
33266;SDS011;19638;49.080;11.896;2023-05-17T09:40:23;7.13;;;3.75;;
33266;SDS011;19638;49.080;11.896;2023-05-17T09:44:26;10.38;;;4.00;;
33266;SDS011;19638;49.080;11.896;2023-05-17T09:48:30;7.95;;;4.45;;
33266;SDS011;19638;49.080;11.896;2023-05-17T09:52:37;12.60;;;4.18;;
33266;SDS011;19638;49.080;11.896;2023-05-17T09:56:41;7.80;;;4.00;;
33266;SDS011;19638;49.080;11.896;2023-05-17T10:00:45;12.48;;;4.25;;
33266;SDS011;19638;49.080;11.896;2023-05-17T10:04:58;10.13;;;4.10;;
33266;SDS011;19638;49.080;11.896;2023-05-17T10:09:09;5.93;;;3.08;;
33266;SDS011;19638;49.080;11.896;2023-05-17T10:13:19;7.18;;;3.45;;
33266;SDS011;19638;49.080;11.896;2023-05-17T10:17:26;13.07;;;3.97;;
33266;SDS011;19638;49.080;11.896;2023-05-17T10:21:31;8.48;;;4.07;;
33266;SDS011;19638;49.080;11.896;2023-05-17T10:25:35;6.18;;;4.13;;
33266;SDS011;19638;49.080;11.896;2023-05-17T10:29:40;9.65;;;4.05;;
33266;SDS011;19638;49.080;11.896;2023-05-17T10:33:49;6.38;;;4.18;;
33266;SDS011;19638;49.080;11.896;2023-05-17T10:37:52;7.63;;;3.45;;
33266;SDS011;19638;49.080;11.896;2023-05-17T10:41:56;11.27;;;4.03;;
33266;SDS011;19638;49.080;11.896;2023-05-17T10:46:17;9.30;;;3.90;;
33266;SDS011;19638;49.080;11.896;2023-05-17T10:50:22;5.35;;;3.67;;
33266;SDS011;19638;49.080;11.896;2023-05-17T10:54:33;10.02;;;3.50;;
33266;SDS011;19638;49.080;11.896;2023-05-17T10:58:37;6.28;;;3.70;;
33266;SDS011;19638;49.080;11.896;2023-05-17T11:02:43;8.57;;;3.78;;
33266;SDS011;19638;49.080;11.896;2023-05-17T11:06:50;7.47;;;3.78;;
33266;SDS011;19638;49.080;11.896;2023-05-17T11:11:08;11.15;;;4.57;;
33266;SDS011;19638;49.080;11.896;2023-05-17T11:15:14;6.18;;;3.75;;
33266;SDS011;19638;49.080;11.896;2023-05-17T11:19:19;8.55;;;4.15;;
33266;SDS011;19638;49.080;11.896;2023-05-17T11:23:25;7.85;;;3.70;;
33266;SDS011;19638;49.080;11.896;2023-05-17T11:27:34;9.15;;;4.18;;
33266;SDS011;19638;49.080;11.896;2023-05-17T11:31:41;9.63;;;4.40;;
33266;SDS011;19638;49.080;11.896;2023-05-17T11:35:47;9.98;;;4.15;;
33266;SDS011;19638;49.080;11.896;2023-05-17T11:40:01;11.43;;;3.67;;
33266;SDS011;19638;49.080;11.896;2023-05-17T11:44:07;6.43;;;3.80;;
33266;SDS011;19638;49.080;11.896;2023-05-17T11:48:13;8.57;;;4.20;;
33266;SDS011;19638;49.080;11.896;2023-05-17T11:52:19;10.57;;;4.28;;
33266;SDS011;19638;49.080;11.896;2023-05-17T11:56:22;6.05;;;3.67;;
33266;SDS011;19638;49.080;11.896;2023-05-17T12:00:42;7.07;;;3.35;;
33266;SDS011;19638;49.080;11.896;2023-05-17T12:04:45;7.90;;;3.83;;
33266;SDS011;19638;49.080;11.896;2023-05-17T12:08:50;7.13;;;3.85;;
33266;SDS011;19638;49.080;11.896;2023-05-17T12:12:53;7.57;;;3.78;;
33266;SDS011;19638;49.080;11.896;2023-05-17T12:16:57;9.93;;;3.75;;
33266;SDS011;19638;49.080;11.896;2023-05-17T12:21:03;6.10;;;3.25;;
33266;SDS011;19638;49.080;11.896;2023-05-17T12:25:18;8.55;;;3.92;;
33266;SDS011;19638;49.080;11.896;2023-05-17T12:29:28;4.95;;;3.60;;
33266;SDS011;19638;49.080;11.896;2023-05-17T12:33:33;11.00;;;3.63;;
33266;SDS011;19638;49.080;11.896;2023-05-17T12:37:39;5.47;;;3.47;;
33266;SDS011;19638;49.080;11.896;2023-05-17T12:41:44;6.40;;;3.60;;
33266;SDS011;19638;49.080;11.896;2023-05-17T12:45:50;8.05;;;3.50;;
33266;SDS011;19638;49.080;11.896;2023-05-17T12:49:56;10.52;;;3.75;;
33266;SDS011;19638;49.080;11.896;2023-05-17T12:54:03;9.20;;;3.72;;
33266;SDS011;19638;49.080;11.896;2023-05-17T12:58:08;9.65;;;3.47;;
33266;SDS011;19638;49.080;11.896;2023-05-17T13:02:11;7.68;;;3.53;;
33266;SDS011;19638;49.080;11.896;2023-05-17T13:06:14;6.53;;;3.13;;
33266;SDS011;19638;49.080;11.896;2023-05-17T13:10:20;6.60;;;3.13;;
33266;SDS011;19638;49.080;11.896;2023-05-17T13:14:35;7.35;;;3.50;;
33266;SDS011;19638;49.080;11.896;2023-05-17T13:18:46;8.98;;;3.30;;
33266;SDS011;19638;49.080;11.896;2023-05-17T13:22:53;7.20;;;3.10;;
33266;SDS011;19638;49.080;11.896;2023-05-17T13:26:56;8.00;;;3.30;;
33266;SDS011;19638;49.080;11.896;2023-05-17T13:31:00;12.43;;;3.72;;
33266;SDS011;19638;49.080;11.896;2023-05-17T13:35:04;8.75;;;4.43;;
33266;SDS011;19638;49.080;11.896;2023-05-17T13:39:09;7.45;;;3.30;;
33266;SDS011;19638;49.080;11.896;2023-05-17T13:43:15;10.57;;;3.72;;
33266;SDS011;19638;49.080;11.896;2023-05-17T13:47:20;4.68;;;3.47;;
33266;SDS011;19638;49.080;11.896;2023-05-17T13:51:23;8.70;;;3.67;;
33266;SDS011;19638;49.080;11.896;2023-05-17T13:55:29;8.60;;;3.67;;
33266;SDS011;19638;49.080;11.896;2023-05-17T13:59:34;5.82;;;3.05;;
33266;SDS011;19638;49.080;11.896;2023-05-17T14:03:39;8.00;;;4.70;;
33266;SDS011;19638;49.080;11.896;2023-05-17T14:07:43;7.30;;;3.53;;
33266;SDS011;19638;49.080;11.896;2023-05-17T14:11:47;8.85;;;3.70;;
33266;SDS011;19638;49.080;11.896;2023-05-17T14:15:53;7.68;;;3.00;;
33266;SDS011;19638;49.080;11.896;2023-05-17T14:20:00;4.82;;;3.17;;
33266;SDS011;19638;49.080;11.896;2023-05-17T14:24:04;6.15;;;3.38;;
33266;SDS011;19638;49.080;11.896;2023-05-17T14:28:08;6.05;;;3.35;;
33266;SDS011;19638;49.080;11.896;2023-05-17T14:32:19;7.75;;;3.92;;
33266;SDS011;19638;49.080;11.896;2023-05-17T14:36:27;11.43;;;3.63;;
33266;SDS011;19638;49.080;11.896;2023-05-17T14:40:30;10.00;;;3.60;;
33266;SDS011;19638;49.080;11.896;2023-05-17T14:44:34;8.05;;;3.13;;
33266;SDS011;19638;49.080;11.896;2023-05-17T14:48:40;9.75;;;3.47;;
33266;SDS011;19638;49.080;11.896;2023-05-17T14:52:47;8.73;;;3.67;;
33266;SDS011;19638;49.080;11.896;2023-05-17T14:56:51;8.90;;;3.50;;
33266;SDS011;19638;49.080;11.896;2023-05-17T15:00:54;9.13;;;3.53;;
33266;SDS011;19638;49.080;11.896;2023-05-17T15:05:07;5.63;;;3.50;;
33266;SDS011;19638;49.080;11.896;2023-05-17T15:09:15;12.05;;;4.88;;
33266;SDS011;19638;49.080;11.896;2023-05-17T15:13:19;10.02;;;3.95;;
33266;SDS011;19638;49.080;11.896;2023-05-17T15:17:23;12.18;;;4.22;;
33266;SDS011;19638;49.080;11.896;2023-05-17T15:21:26;9.80;;;4.18;;
33266;SDS011;19638;49.080;11.896;2023-05-17T15:25:32;7.55;;;3.30;;
33266;SDS011;19638;49.080;11.896;2023-05-17T15:29:41;10.70;;;5.80;;
33266;SDS011;19638;49.080;11.896;2023-05-17T15:33:45;12.23;;;3.70;;
33266;SDS011;19638;49.080;11.896;2023-05-17T15:37:56;9.18;;;3.10;;
33266;SDS011;19638;49.080;11.896;2023-05-17T15:42:01;6.07;;;3.30;;
33266;SDS011;19638;49.080;11.896;2023-05-17T15:46:05;5.68;;;3.40;;
33266;SDS011;19638;49.080;11.896;2023-05-17T15:50:12;8.93;;;3.03;;
33266;SDS011;19638;49.080;11.896;2023-05-17T15:54:15;7.65;;;3.40;;
33266;SDS011;19638;49.080;11.896;2023-05-17T15:58:22;7.45;;;3.65;;
33266;SDS011;19638;49.080;11.896;2023-05-17T16:02:36;8.77;;;3.30;;
33266;SDS011;19638;49.080;11.896;2023-05-17T16:06:39;6.75;;;3.38;;
33266;SDS011;19638;49.080;11.896;2023-05-17T16:10:46;7.28;;;3.38;;
33266;SDS011;19638;49.080;11.896;2023-05-17T16:14:50;9.40;;;3.72;;
33266;SDS011;19638;49.080;11.896;2023-05-17T16:18:53;8.93;;;3.30;;
33266;SDS011;19638;49.080;11.896;2023-05-17T16:22:58;6.90;;;3.40;;
33266;SDS011;19638;49.080;11.896;2023-05-17T16:27:01;6.75;;;3.15;;
33266;SDS011;19638;49.080;11.896;2023-05-17T16:31:10;7.50;;;3.72;;
33266;SDS011;19638;49.080;11.896;2023-05-17T16:35:13;8.85;;;4.35;;
33266;SDS011;19638;49.080;11.896;2023-05-17T16:39:22;6.65;;;3.78;;
33266;SDS011;19638;49.080;11.896;2023-05-17T16:43:32;8.30;;;4.43;;
33266;SDS011;19638;49.080;11.896;2023-05-17T16:47:38;8.75;;;4.10;;
33266;SDS011;19638;49.080;11.896;2023-05-17T16:51:44;5.28;;;3.33;;
33266;SDS011;19638;49.080;11.896;2023-05-17T16:55:50;7.78;;;3.63;;
33266;SDS011;19638;49.080;11.896;2023-05-17T16:59:53;9.13;;;3.38;;
33266;SDS011;19638;49.080;11.896;2023-05-17T17:03:58;8.45;;;3.88;;
33266;SDS011;19638;49.080;11.896;2023-05-17T17:08:09;8.45;;;3.95;;
33266;SDS011;19638;49.080;11.896;2023-05-17T17:12:18;6.80;;;3.70;;
33266;SDS011;19638;49.080;11.896;2023-05-17T17:16:26;10.35;;;3.80;;
33266;SDS011;19638;49.080;11.896;2023-05-17T17:20:36;6.75;;;3.25;;
33266;SDS011;19638;49.080;11.896;2023-05-17T17:24:44;7.80;;;3.47;;
33266;SDS011;19638;49.080;11.896;2023-05-17T17:28:48;9.68;;;3.58;;
33266;SDS011;19638;49.080;11.896;2023-05-17T17:32:53;9.65;;;3.25;;
33266;SDS011;19638;49.080;11.896;2023-05-17T17:36:58;14.02;;;3.50;;
33266;SDS011;19638;49.080;11.896;2023-05-17T17:41:03;5.47;;;3.30;;
33266;SDS011;19638;49.080;11.896;2023-05-17T17:45:10;4.90;;;3.20;;
33266;SDS011;19638;49.080;11.896;2023-05-17T17:49:16;4.28;;;3.35;;
33266;SDS011;19638;49.080;11.896;2023-05-17T17:53:24;4.75;;;3.42;;
33266;SDS011;19638;49.080;11.896;2023-05-17T17:57:28;8.15;;;3.67;;
33266;SDS011;19638;49.080;11.896;2023-05-17T18:01:32;6.88;;;3.58;;
33266;SDS011;19638;49.080;11.896;2023-05-17T18:05:38;13.43;;;5.65;;
33266;SDS011;19638;49.080;11.896;2023-05-17T18:09:48;18.30;;;7.35;;
33266;SDS011;19638;49.080;11.896;2023-05-17T18:13:56;11.10;;;4.85;;
33266;SDS011;19638;49.080;11.896;2023-05-17T18:18:00;11.00;;;4.47;;
33266;SDS011;19638;49.080;11.896;2023-05-17T18:22:03;15.60;;;4.95;;
33266;SDS011;19638;49.080;11.896;2023-05-17T18:26:09;9.15;;;3.63;;
33266;SDS011;19638;49.080;11.896;2023-05-17T18:30:15;8.98;;;3.55;;
33266;SDS011;19638;49.080;11.896;2023-05-17T18:34:18;9.13;;;3.42;;
33266;SDS011;19638;49.080;11.896;2023-05-17T18:38:21;9.50;;;3.85;;
33266;SDS011;19638;49.080;11.896;2023-05-17T18:42:29;8.27;;;3.35;;
33266;SDS011;19638;49.080;11.896;2023-05-17T18:46:34;9.02;;;3.83;;
33266;SDS011;19638;49.080;11.896;2023-05-17T18:50:37;6.72;;;3.97;;
33266;SDS011;19638;49.080;11.896;2023-05-17T18:54:41;7.88;;;3.60;;
33266;SDS011;19638;49.080;11.896;2023-05-17T18:58:50;7.18;;;4.18;;
33266;SDS011;19638;49.080;11.896;2023-05-17T19:02:55;10.38;;;4.13;;
33266;SDS011;19638;49.080;11.896;2023-05-17T19:07:00;10.30;;;5.47;;
33266;SDS011;19638;49.080;11.896;2023-05-17T19:11:03;8.98;;;5.13;;
33266;SDS011;19638;49.080;11.896;2023-05-17T19:15:11;8.88;;;4.38;;
33266;SDS011;19638;49.080;11.896;2023-05-17T19:19:14;10.20;;;4.40;;
33266;SDS011;19638;49.080;11.896;2023-05-17T19:23:22;9.00;;;4.43;;
33266;SDS011;19638;49.080;11.896;2023-05-17T19:27:28;10.27;;;4.68;;
33266;SDS011;19638;49.080;11.896;2023-05-17T19:31:38;9.25;;;4.90;;
33266;SDS011;19638;49.080;11.896;2023-05-17T19:35:43;9.65;;;4.38;;
33266;SDS011;19638;49.080;11.896;2023-05-17T19:39:46;13.95;;;5.22;;
33266;SDS011;19638;49.080;11.896;2023-05-17T19:43:50;8.60;;;4.53;;
33266;SDS011;19638;49.080;11.896;2023-05-17T19:47:58;18.63;;;4.83;;
33266;SDS011;19638;49.080;11.896;2023-05-17T19:52:10;10.23;;;4.18;;
33266;SDS011;19638;49.080;11.896;2023-05-17T19:56:13;9.35;;;4.40;;
33266;SDS011;19638;49.080;11.896;2023-05-17T20:00:16;5.78;;;4.25;;
33266;SDS011;19638;49.080;11.896;2023-05-17T20:04:23;10.65;;;4.00;;
33266;SDS011;19638;49.080;11.896;2023-05-17T20:08:27;10.95;;;4.38;;
33266;SDS011;19638;49.080;11.896;2023-05-17T20:12:30;11.05;;;4.93;;
33266;SDS011;19638;49.080;11.896;2023-05-17T20:16:33;9.37;;;4.90;;
33266;SDS011;19638;49.080;11.896;2023-05-17T20:20:38;13.15;;;4.97;;
33266;SDS011;19638;49.080;11.896;2023-05-17T20:24:42;6.90;;;4.47;;
33266;SDS011;19638;49.080;11.896;2023-05-17T20:28:47;12.13;;;4.50;;
33266;SDS011;19638;49.080;11.896;2023-05-17T20:32:52;14.38;;;4.63;;
33266;SDS011;19638;49.080;11.896;2023-05-17T20:36:57;13.65;;;4.53;;
33266;SDS011;19638;49.080;11.896;2023-05-17T20:41:01;16.60;;;4.90;;
33266;SDS011;19638;49.080;11.896;2023-05-17T20:45:07;12.88;;;4.80;;
33266;SDS011;19638;49.080;11.896;2023-05-17T20:49:13;15.45;;;4.35;;
33266;SDS011;19638;49.080;11.896;2023-05-17T20:53:21;11.35;;;3.67;;
33266;SDS011;19638;49.080;11.896;2023-05-17T20:57:26;11.82;;;4.13;;
33266;SDS011;19638;49.080;11.896;2023-05-17T21:01:32;6.07;;;3.70;;
33266;SDS011;19638;49.080;11.896;2023-05-17T21:05:38;9.47;;;3.33;;
33266;SDS011;19638;49.080;11.896;2023-05-17T21:09:45;10.02;;;3.47;;
33266;SDS011;19638;49.080;11.896;2023-05-17T21:13:50;6.45;;;3.88;;
33266;SDS011;19638;49.080;11.896;2023-05-17T21:17:54;7.20;;;3.25;;
33266;SDS011;19638;49.080;11.896;2023-05-17T21:21:57;7.47;;;3.60;;
33266;SDS011;19638;49.080;11.896;2023-05-17T21:26:04;9.40;;;3.40;;
33266;SDS011;19638;49.080;11.896;2023-05-17T21:30:08;11.05;;;3.95;;
33266;SDS011;19638;49.080;11.896;2023-05-17T21:34:14;12.13;;;3.50;;
33266;SDS011;19638;49.080;11.896;2023-05-17T21:38:17;7.47;;;3.63;;
33266;SDS011;19638;49.080;11.896;2023-05-17T21:42:22;6.53;;;3.53;;
33266;SDS011;19638;49.080;11.896;2023-05-17T21:46:25;13.27;;;3.30;;
33266;SDS011;19638;49.080;11.896;2023-05-17T21:50:29;10.02;;;3.85;;
33266;SDS011;19638;49.080;11.896;2023-05-17T21:54:32;8.82;;;3.63;;
33266;SDS011;19638;49.080;11.896;2023-05-17T21:58:37;10.02;;;3.60;;
33266;SDS011;19638;49.080;11.896;2023-05-17T22:02:45;13.33;;;4.00;;
33266;SDS011;19638;49.080;11.896;2023-05-17T22:06:50;11.07;;;3.47;;
33266;SDS011;19638;49.080;11.896;2023-05-17T22:10:54;9.13;;;3.57;;
33266;SDS011;19638;49.080;11.896;2023-05-17T22:14:58;15.00;;;3.70;;
33266;SDS011;19638;49.080;11.896;2023-05-17T22:19:02;5.93;;;3.23;;
33266;SDS011;19638;49.080;11.896;2023-05-17T22:23:07;9.87;;;3.03;;
33266;SDS011;19638;49.080;11.896;2023-05-17T22:27:13;6.32;;;3.03;;
33266;SDS011;19638;49.080;11.896;2023-05-17T22:31:20;12.07;;;3.40;;
33266;SDS011;19638;49.080;11.896;2023-05-17T22:35:26;11.05;;;3.50;;
33266;SDS011;19638;49.080;11.896;2023-05-17T22:39:29;8.10;;;3.17;;
33266;SDS011;19638;49.080;11.896;2023-05-17T22:43:36;6.97;;;3.43;;
33266;SDS011;19638;49.080;11.896;2023-05-17T22:47:41;12.17;;;4.33;;
33266;SDS011;19638;49.080;11.896;2023-05-17T22:51:44;6.37;;;4.20;;
33266;SDS011;19638;49.080;11.896;2023-05-17T22:55:49;9.87;;;4.10;;
33266;SDS011;19638;49.080;11.896;2023-05-17T22:59:55;9.27;;;3.47;;
33266;SDS011;19638;49.080;11.896;2023-05-17T23:04:01;10.57;;;3.40;;
33266;SDS011;19638;49.080;11.896;2023-05-17T23:08:04;12.80;;;3.63;;
33266;SDS011;19638;49.080;11.896;2023-05-17T23:12:08;10.37;;;3.40;;
33266;SDS011;19638;49.080;11.896;2023-05-17T23:16:14;5.97;;;3.23;;
33266;SDS011;19638;49.080;11.896;2023-05-17T23:20:19;6.33;;;3.10;;
33266;SDS011;19638;49.080;11.896;2023-05-17T23:24:27;11.60;;;3.87;;
33266;SDS011;19638;49.080;11.896;2023-05-17T23:28:40;11.97;;;3.83;;
33266;SDS011;19638;49.080;11.896;2023-05-17T23:32:44;12.13;;;3.77;;
33266;SDS011;19638;49.080;11.896;2023-05-17T23:36:50;6.17;;;3.43;;
33266;SDS011;19638;49.080;11.896;2023-05-17T23:40:53;7.63;;;3.60;;
33266;SDS011;19638;49.080;11.896;2023-05-17T23:44:58;8.77;;;3.70;;
33266;SDS011;19638;49.080;11.896;2023-05-17T23:49:02;12.83;;;4.73;;
33266;SDS011;19638;49.080;11.896;2023-05-17T23:53:07;7.20;;;3.77;;
33266;SDS011;19638;49.080;11.896;2023-05-17T23:57:12;5.90;;;3.47;;
